sensor_id;sensor_type;location;lat;lon;timestamp;P1;durP1;ratioP1;P2;durP2;ratioP2
56141;SDS011;42018;48.588;10.836;2023-05-20T00:01:27;4.18;;;2.42;;
56141;SDS011;42018;48.588;10.836;2023-05-20T00:04:12;3.80;;;2.20;;
56141;SDS011;42018;48.588;10.836;2023-05-20T00:06:58;4.35;;;2.50;;
56141;SDS011;42018;48.588;10.836;2023-05-20T00:09:43;4.40;;;2.53;;
56141;SDS011;42018;48.588;10.836;2023-05-20T00:12:29;4.10;;;2.60;;
56141;SDS011;42018;48.588;10.836;2023-05-20T00:15:14;5.10;;;2.55;;
56141;SDS011;42018;48.588;10.836;2023-05-20T00:18:00;4.20;;;2.60;;
56141;SDS011;42018;48.588;10.836;2023-05-20T00:20:45;5.22;;;2.67;;
56141;SDS011;42018;48.588;10.836;2023-05-20T00:23:31;5.05;;;3.10;;
56141;SDS011;42018;48.588;10.836;2023-05-20T00:26:16;4.20;;;2.80;;
56141;SDS011;42018;48.588;10.836;2023-05-20T00:29:02;4.68;;;2.92;;
56141;SDS011;42018;48.588;10.836;2023-05-20T00:31:47;5.03;;;3.05;;
56141;SDS011;42018;48.588;10.836;2023-05-20T00:34:32;4.03;;;2.90;;
56141;SDS011;42018;48.588;10.836;2023-05-20T00:37:18;5.00;;;3.40;;
56141;SDS011;42018;48.588;10.836;2023-05-20T00:40:03;4.63;;;3.38;;
56141;SDS011;42018;48.588;10.836;2023-05-20T00:42:49;5.10;;;3.20;;
56141;SDS011;42018;48.588;10.836;2023-05-20T00:45:35;5.18;;;3.40;;
56141;SDS011;42018;48.588;10.836;2023-05-20T00:48:21;5.18;;;3.15;;
56141;SDS011;42018;48.588;10.836;2023-05-20T00:51:07;5.30;;;3.40;;
56141;SDS011;42018;48.588;10.836;2023-05-20T00:53:54;4.50;;;2.90;;
56141;SDS011;42018;48.588;10.836;2023-05-20T00:56:40;5.43;;;3.15;;
56141;SDS011;42018;48.588;10.836;2023-05-20T00:59:25;4.15;;;2.75;;
56141;SDS011;42018;48.588;10.836;2023-05-20T01:02:11;4.93;;;2.80;;
56141;SDS011;42018;48.588;10.836;2023-05-20T01:04:57;4.30;;;2.80;;
56141;SDS011;42018;48.588;10.836;2023-05-20T01:07:43;4.40;;;2.90;;
56141;SDS011;42018;48.588;10.836;2023-05-20T01:10:28;4.10;;;2.55;;
56141;SDS011;42018;48.588;10.836;2023-05-20T01:13:16;4.60;;;2.90;;
56141;SDS011;42018;48.588;10.836;2023-05-20T01:16:05;4.22;;;2.72;;
56141;SDS011;42018;48.588;10.836;2023-05-20T01:18:54;4.45;;;2.80;;
56141;SDS011;42018;48.588;10.836;2023-05-20T01:21:41;4.90;;;2.90;;
56141;SDS011;42018;48.588;10.836;2023-05-20T01:24:27;4.97;;;2.78;;
56141;SDS011;42018;48.588;10.836;2023-05-20T01:27:13;5.30;;;2.65;;
56141;SDS011;42018;48.588;10.836;2023-05-20T01:29:58;5.13;;;3.03;;
56141;SDS011;42018;48.588;10.836;2023-05-20T01:32:48;4.25;;;2.80;;
56141;SDS011;42018;48.588;10.836;2023-05-20T01:35:36;4.40;;;2.78;;
56141;SDS011;42018;48.588;10.836;2023-05-20T01:38:25;5.75;;;2.65;;
56141;SDS011;42018;48.588;10.836;2023-05-20T01:41:11;6.03;;;2.78;;
56141;SDS011;42018;48.588;10.836;2023-05-20T01:43:56;4.20;;;2.63;;
56141;SDS011;42018;48.588;10.836;2023-05-20T01:46:47;4.72;;;2.95;;
56141;SDS011;42018;48.588;10.836;2023-05-20T01:49:33;4.35;;;2.70;;
56141;SDS011;42018;48.588;10.836;2023-05-20T01:52:21;4.50;;;3.00;;
56141;SDS011;42018;48.588;10.836;2023-05-20T01:55:07;4.50;;;2.75;;
56141;SDS011;42018;48.588;10.836;2023-05-20T01:57:53;4.68;;;2.90;;
56141;SDS011;42018;48.588;10.836;2023-05-20T02:00:39;5.20;;;2.90;;
56141;SDS011;42018;48.588;10.836;2023-05-20T02:03:24;6.25;;;3.38;;
56141;SDS011;42018;48.588;10.836;2023-05-20T02:06:10;5.03;;;3.60;;
56141;SDS011;42018;48.588;10.836;2023-05-20T02:08:55;6.82;;;3.55;;
56141;SDS011;42018;48.588;10.836;2023-05-20T02:11:41;5.78;;;3.85;;
56141;SDS011;42018;48.588;10.836;2023-05-20T02:14:26;4.32;;;3.10;;
56141;SDS011;42018;48.588;10.836;2023-05-20T02:17:15;5.00;;;3.28;;
56141;SDS011;42018;48.588;10.836;2023-05-20T02:20:01;4.60;;;3.37;;
56141;SDS011;42018;48.588;10.836;2023-05-20T02:22:49;6.75;;;3.78;;
56141;SDS011;42018;48.588;10.836;2023-05-20T02:25:35;4.50;;;3.30;;
56141;SDS011;42018;48.588;10.836;2023-05-20T02:28:20;6.10;;;3.75;;
56141;SDS011;42018;48.588;10.836;2023-05-20T02:31:06;5.07;;;3.60;;
56141;SDS011;42018;48.588;10.836;2023-05-20T02:33:51;4.70;;;3.72;;
56141;SDS011;42018;48.588;10.836;2023-05-20T02:36:37;4.85;;;3.50;;
56141;SDS011;42018;48.588;10.836;2023-05-20T02:39:22;4.75;;;3.50;;
56141;SDS011;42018;48.588;10.836;2023-05-20T02:42:08;5.30;;;4.00;;
56141;SDS011;42018;48.588;10.836;2023-05-20T02:44:53;5.07;;;3.80;;
56141;SDS011;42018;48.588;10.836;2023-05-20T02:47:42;5.80;;;4.18;;
56141;SDS011;42018;48.588;10.836;2023-05-20T02:50:27;5.20;;;3.47;;
56141;SDS011;42018;48.588;10.836;2023-05-20T02:53:13;4.72;;;3.47;;
56141;SDS011;42018;48.588;10.836;2023-05-20T02:55:58;5.28;;;3.63;;
56141;SDS011;42018;48.588;10.836;2023-05-20T02:58:44;5.05;;;3.88;;
56141;SDS011;42018;48.588;10.836;2023-05-20T03:01:29;5.28;;;4.00;;
56141;SDS011;42018;48.588;10.836;2023-05-20T03:04:14;6.60;;;3.97;;
56141;SDS011;42018;48.588;10.836;2023-05-20T03:07:04;5.05;;;3.53;;
56141;SDS011;42018;48.588;10.836;2023-05-20T03:09:51;5.47;;;3.70;;
56141;SDS011;42018;48.588;10.836;2023-05-20T03:12:36;5.03;;;3.15;;
56141;SDS011;42018;48.588;10.836;2023-05-20T03:15:22;5.13;;;3.42;;
56141;SDS011;42018;48.588;10.836;2023-05-20T03:18:07;5.43;;;3.58;;
56141;SDS011;42018;48.588;10.836;2023-05-20T03:20:53;5.35;;;3.72;;
56141;SDS011;42018;48.588;10.836;2023-05-20T03:23:38;5.60;;;3.40;;
56141;SDS011;42018;48.588;10.836;2023-05-20T03:26:23;5.70;;;3.40;;
56141;SDS011;42018;48.588;10.836;2023-05-20T03:29:09;4.30;;;3.00;;
56141;SDS011;42018;48.588;10.836;2023-05-20T03:31:55;4.82;;;3.30;;
56141;SDS011;42018;48.588;10.836;2023-05-20T03:34:40;4.97;;;3.40;;
56141;SDS011;42018;48.588;10.836;2023-05-20T03:37:26;4.65;;;3.42;;
56141;SDS011;42018;48.588;10.836;2023-05-20T03:40:11;4.95;;;3.63;;
56141;SDS011;42018;48.588;10.836;2023-05-20T03:42:57;5.43;;;3.63;;
56141;SDS011;42018;48.588;10.836;2023-05-20T03:45:42;5.13;;;3.08;;
56141;SDS011;42018;48.588;10.836;2023-05-20T03:48:27;5.05;;;3.45;;
56141;SDS011;42018;48.588;10.836;2023-05-20T03:51:13;4.95;;;3.28;;
56141;SDS011;42018;48.588;10.836;2023-05-20T03:53:58;5.03;;;3.42;;
56141;SDS011;42018;48.588;10.836;2023-05-20T03:56:45;4.85;;;3.30;;
56141;SDS011;42018;48.588;10.836;2023-05-20T03:59:30;5.03;;;3.25;;
56141;SDS011;42018;48.588;10.836;2023-05-20T04:02:16;4.90;;;3.40;;
56141;SDS011;42018;48.588;10.836;2023-05-20T04:05:01;4.65;;;3.28;;
56141;SDS011;42018;48.588;10.836;2023-05-20T04:07:47;5.00;;;3.60;;
56141;SDS011;42018;48.588;10.836;2023-05-20T04:10:33;5.03;;;3.75;;
56141;SDS011;42018;48.588;10.836;2023-05-20T04:13:19;5.47;;;3.80;;
56141;SDS011;42018;48.588;10.836;2023-05-20T04:16:05;5.13;;;3.63;;
56141;SDS011;42018;48.588;10.836;2023-05-20T04:18:51;7.38;;;3.80;;
56141;SDS011;42018;48.588;10.836;2023-05-20T04:21:37;4.82;;;3.05;;
56141;SDS011;42018;48.588;10.836;2023-05-20T04:24:24;6.28;;;3.80;;
56141;SDS011;42018;48.588;10.836;2023-05-20T04:27:10;5.18;;;3.67;;
56141;SDS011;42018;48.588;10.836;2023-05-20T04:29:56;4.90;;;3.78;;
56141;SDS011;42018;48.588;10.836;2023-05-20T04:32:42;6.28;;;4.00;;
56141;SDS011;42018;48.588;10.836;2023-05-20T04:35:28;4.93;;;3.30;;
56141;SDS011;42018;48.588;10.836;2023-05-20T04:38:13;5.15;;;3.83;;
56141;SDS011;42018;48.588;10.836;2023-05-20T04:41:00;5.55;;;3.80;;
56141;SDS011;42018;48.588;10.836;2023-05-20T04:43:46;5.70;;;3.42;;
56141;SDS011;42018;48.588;10.836;2023-05-20T04:46:31;4.95;;;3.63;;
56141;SDS011;42018;48.588;10.836;2023-05-20T04:49:17;5.13;;;3.25;;
56141;SDS011;42018;48.588;10.836;2023-05-20T04:52:03;4.95;;;3.88;;
56141;SDS011;42018;48.588;10.836;2023-05-20T04:54:49;5.00;;;3.75;;
56141;SDS011;42018;48.588;10.836;2023-05-20T04:57:35;5.18;;;4.00;;
56141;SDS011;42018;48.588;10.836;2023-05-20T05:00:23;5.45;;;3.80;;
56141;SDS011;42018;48.588;10.836;2023-05-20T05:03:09;6.82;;;4.60;;
56141;SDS011;42018;48.588;10.836;2023-05-20T05:05:57;5.97;;;3.75;;
56141;SDS011;42018;48.588;10.836;2023-05-20T05:08:42;4.75;;;3.45;;
56141;SDS011;42018;48.588;10.836;2023-05-20T05:11:28;5.63;;;4.30;;
56141;SDS011;42018;48.588;10.836;2023-05-20T05:14:13;5.53;;;4.22;;
56141;SDS011;42018;48.588;10.836;2023-05-20T05:16:59;5.35;;;4.30;;
56141;SDS011;42018;48.588;10.836;2023-05-20T05:19:44;5.47;;;3.90;;
56141;SDS011;42018;48.588;10.836;2023-05-20T05:22:29;6.75;;;4.13;;
56141;SDS011;42018;48.588;10.836;2023-05-20T05:25:15;6.32;;;4.43;;
56141;SDS011;42018;48.588;10.836;2023-05-20T05:28:00;5.13;;;4.25;;
56141;SDS011;42018;48.588;10.836;2023-05-20T05:30:46;5.63;;;4.47;;
56141;SDS011;42018;48.588;10.836;2023-05-20T05:33:31;6.28;;;4.70;;
56141;SDS011;42018;48.588;10.836;2023-05-20T05:36:16;6.00;;;4.43;;
56141;SDS011;42018;48.588;10.836;2023-05-20T05:39:02;5.68;;;4.40;;
56141;SDS011;42018;48.588;10.836;2023-05-20T05:41:47;7.55;;;4.95;;
56141;SDS011;42018;48.588;10.836;2023-05-20T05:44:33;7.82;;;4.80;;
56141;SDS011;42018;48.588;10.836;2023-05-20T05:47:18;6.00;;;4.38;;
56141;SDS011;42018;48.588;10.836;2023-05-20T05:50:04;5.65;;;4.47;;
56141;SDS011;42018;48.588;10.836;2023-05-20T05:52:50;7.53;;;5.05;;
56141;SDS011;42018;48.588;10.836;2023-05-20T05:55:38;7.60;;;4.70;;
56141;SDS011;42018;48.588;10.836;2023-05-20T05:58:23;5.75;;;4.75;;
56141;SDS011;42018;48.588;10.836;2023-05-20T06:01:09;5.40;;;4.32;;
56141;SDS011;42018;48.588;10.836;2023-05-20T06:03:54;7.10;;;5.10;;
56141;SDS011;42018;48.588;10.836;2023-05-20T06:06:40;8.05;;;4.75;;
56141;SDS011;42018;48.588;10.836;2023-05-20T06:09:26;5.95;;;4.40;;
56141;SDS011;42018;48.588;10.836;2023-05-20T06:12:11;6.57;;;4.65;;
56141;SDS011;42018;48.588;10.836;2023-05-20T06:14:56;5.47;;;4.63;;
56141;SDS011;42018;48.588;10.836;2023-05-20T06:17:51;6.00;;;4.68;;
56141;SDS011;42018;48.588;10.836;2023-05-20T06:24:11;7.38;;;4.80;;
56141;SDS011;42018;48.588;10.836;2023-05-20T06:27:22;6.35;;;4.60;;
56141;SDS011;42018;48.588;10.836;2023-05-20T06:30:31;6.00;;;4.88;;
56141;SDS011;42018;48.588;10.836;2023-05-20T06:33:19;6.68;;;4.95;;
56141;SDS011;42018;48.588;10.836;2023-05-20T06:36:40;7.38;;;4.97;;
56141;SDS011;42018;48.588;10.836;2023-05-20T06:39:40;5.38;;;4.55;;
56141;SDS011;42018;48.588;10.836;2023-05-20T06:42:44;6.47;;;4.30;;
56141;SDS011;42018;48.588;10.836;2023-05-20T06:45:54;5.80;;;4.32;;
56141;SDS011;42018;48.588;10.836;2023-05-20T06:48:39;5.95;;;4.72;;
56141;SDS011;42018;48.588;10.836;2023-05-20T06:58:49;9.23;;;4.75;;
56141;SDS011;42018;48.588;10.836;2023-05-20T07:01:35;5.68;;;4.30;;
56141;SDS011;42018;48.588;10.836;2023-05-20T07:15:24;6.15;;;4.40;;
56141;SDS011;42018;48.588;10.836;2023-05-20T07:21:51;5.47;;;4.20;;
56141;SDS011;42018;48.588;10.836;2023-05-20T07:36:03;6.03;;;4.00;;
56141;SDS011;42018;48.588;10.836;2023-05-20T07:38:49;6.38;;;4.15;;
56141;SDS011;42018;48.588;10.836;2023-05-20T07:41:39;5.57;;;4.25;;
56141;SDS011;42018;48.588;10.836;2023-05-20T07:44:25;5.40;;;3.80;;
56141;SDS011;42018;48.588;10.836;2023-05-20T08:06:06;5.43;;;4.03;;
56141;SDS011;42018;48.588;10.836;2023-05-20T08:08:52;5.78;;;3.95;;
56141;SDS011;42018;48.588;10.836;2023-05-20T08:11:40;5.15;;;3.67;;
56141;SDS011;42018;48.588;10.836;2023-05-20T08:14:25;7.43;;;3.90;;
56141;SDS011;42018;48.588;10.836;2023-05-20T08:17:11;5.20;;;3.65;;
56141;SDS011;42018;48.588;10.836;2023-05-20T08:19:56;5.50;;;3.75;;
56141;SDS011;42018;48.588;10.836;2023-05-20T08:22:41;4.93;;;3.50;;
56141;SDS011;42018;48.588;10.836;2023-05-20T08:25:27;5.97;;;4.00;;
56141;SDS011;42018;48.588;10.836;2023-05-20T08:28:12;6.35;;;3.33;;
56141;SDS011;42018;48.588;10.836;2023-05-20T08:31:00;5.20;;;3.40;;
56141;SDS011;42018;48.588;10.836;2023-05-20T08:33:45;4.78;;;3.28;;
56141;SDS011;42018;48.588;10.836;2023-05-20T08:36:30;5.97;;;3.75;;
56141;SDS011;42018;48.588;10.836;2023-05-20T08:39:16;5.35;;;3.60;;
56141;SDS011;42018;48.588;10.836;2023-05-20T08:42:01;5.18;;;3.70;;
56141;SDS011;42018;48.588;10.836;2023-05-20T08:44:47;5.57;;;3.58;;
56141;SDS011;42018;48.588;10.836;2023-05-20T08:47:36;5.50;;;3.97;;
56141;SDS011;42018;48.588;10.836;2023-05-20T08:50:25;5.40;;;3.40;;
56141;SDS011;42018;48.588;10.836;2023-05-20T08:53:11;5.00;;;3.63;;
56141;SDS011;42018;48.588;10.836;2023-05-20T08:55:58;5.00;;;3.47;;
56141;SDS011;42018;48.588;10.836;2023-05-20T08:58:46;4.43;;;3.17;;
56141;SDS011;42018;48.588;10.836;2023-05-20T09:01:32;6.20;;;3.60;;
56141;SDS011;42018;48.588;10.836;2023-05-20T09:04:23;4.88;;;3.15;;
56141;SDS011;42018;48.588;10.836;2023-05-20T09:07:09;5.85;;;3.30;;
56141;SDS011;42018;48.588;10.836;2023-05-20T09:09:54;5.20;;;3.20;;
56141;SDS011;42018;48.588;10.836;2023-05-20T09:12:40;5.15;;;3.50;;
56141;SDS011;42018;48.588;10.836;2023-05-20T09:15:25;5.22;;;3.30;;
56141;SDS011;42018;48.588;10.836;2023-05-20T09:18:11;4.75;;;3.28;;
56141;SDS011;42018;48.588;10.836;2023-05-20T09:20:57;4.43;;;3.10;;
56141;SDS011;42018;48.588;10.836;2023-05-20T09:23:46;4.65;;;3.17;;
56141;SDS011;42018;48.588;10.836;2023-05-20T09:26:32;5.25;;;3.53;;
56141;SDS011;42018;48.588;10.836;2023-05-20T09:29:18;4.43;;;3.03;;
56141;SDS011;42018;48.588;10.836;2023-05-20T09:32:07;4.53;;;2.85;;
56141;SDS011;42018;48.588;10.836;2023-05-20T09:34:52;6.05;;;3.15;;
56141;SDS011;42018;48.588;10.836;2023-05-20T09:37:38;6.20;;;3.55;;
56141;SDS011;42018;48.588;10.836;2023-05-20T09:40:27;5.30;;;3.60;;
56141;SDS011;42018;48.588;10.836;2023-05-20T09:43:13;4.88;;;3.38;;
56141;SDS011;42018;48.588;10.836;2023-05-20T09:45:59;4.70;;;3.20;;
56141;SDS011;42018;48.588;10.836;2023-05-20T09:48:55;5.60;;;3.53;;
56141;SDS011;42018;48.588;10.836;2023-05-20T09:51:43;5.05;;;3.20;;
56141;SDS011;42018;48.588;10.836;2023-05-20T09:54:29;4.78;;;3.13;;
56141;SDS011;42018;48.588;10.836;2023-05-20T09:57:15;5.22;;;3.20;;
56141;SDS011;42018;48.588;10.836;2023-05-20T10:00:10;6.07;;;3.20;;
56141;SDS011;42018;48.588;10.836;2023-05-20T10:03:03;5.43;;;3.40;;
56141;SDS011;42018;48.588;10.836;2023-05-20T10:14:59;4.45;;;2.95;;
56141;SDS011;42018;48.588;10.836;2023-05-20T10:20:57;4.60;;;2.80;;
56141;SDS011;42018;48.588;10.836;2023-05-20T10:26:59;4.75;;;2.90;;
56141;SDS011;42018;48.588;10.836;2023-05-20T10:37:19;4.60;;;2.60;;
56141;SDS011;42018;48.588;10.836;2023-05-20T10:44:44;4.53;;;3.08;;
56141;SDS011;42018;48.588;10.836;2023-05-20T10:47:31;4.50;;;2.83;;
56141;SDS011;42018;48.588;10.836;2023-05-20T10:50:27;5.40;;;2.90;;
56141;SDS011;42018;48.588;10.836;2023-05-20T10:53:44;4.70;;;2.90;;
56141;SDS011;42018;48.588;10.836;2023-05-20T10:56:52;4.95;;;2.75;;
56141;SDS011;42018;48.588;10.836;2023-05-20T10:59:40;6.32;;;2.80;;
56141;SDS011;42018;48.588;10.836;2023-05-20T11:02:31;4.65;;;2.90;;
56141;SDS011;42018;48.588;10.836;2023-05-20T11:05:18;4.43;;;3.00;;
56141;SDS011;42018;48.588;10.836;2023-05-20T11:08:12;4.40;;;2.70;;
56141;SDS011;42018;48.588;10.836;2023-05-20T11:10:58;4.38;;;2.50;;
56141;SDS011;42018;48.588;10.836;2023-05-20T11:13:44;5.70;;;2.60;;
56141;SDS011;42018;48.588;10.836;2023-05-20T11:16:36;5.63;;;2.80;;
56141;SDS011;42018;48.588;10.836;2023-05-20T11:19:22;4.57;;;2.97;;
56141;SDS011;42018;48.588;10.836;2023-05-20T11:22:07;4.68;;;2.75;;
56141;SDS011;42018;48.588;10.836;2023-05-20T11:24:53;3.90;;;2.35;;
56141;SDS011;42018;48.588;10.836;2023-05-20T11:27:38;4.18;;;2.10;;
56141;SDS011;42018;48.588;10.836;2023-05-20T11:30:24;5.28;;;2.95;;
56141;SDS011;42018;48.588;10.836;2023-05-20T11:33:10;4.22;;;2.40;;
56141;SDS011;42018;48.588;10.836;2023-05-20T11:36:01;4.68;;;2.58;;
56141;SDS011;42018;48.588;10.836;2023-05-20T11:38:50;5.20;;;2.78;;
56141;SDS011;42018;48.588;10.836;2023-05-20T11:41:38;3.95;;;2.17;;
56141;SDS011;42018;48.588;10.836;2023-05-20T11:44:26;5.13;;;2.60;;
56141;SDS011;42018;48.588;10.836;2023-05-20T11:47:23;4.22;;;2.70;;
56141;SDS011;42018;48.588;10.836;2023-05-20T11:50:19;4.97;;;2.88;;
56141;SDS011;42018;48.588;10.836;2023-05-20T11:53:07;5.55;;;2.60;;
56141;SDS011;42018;48.588;10.836;2023-05-20T11:56:02;4.43;;;2.72;;
56141;SDS011;42018;48.588;10.836;2023-05-20T11:59:00;18.73;;;5.22;;
56141;SDS011;42018;48.588;10.836;2023-05-20T12:01:53;4.65;;;2.58;;
56141;SDS011;42018;48.588;10.836;2023-05-20T12:04:35;4.18;;;2.75;;
56141;SDS011;42018;48.588;10.836;2023-05-20T12:07:20;4.30;;;2.47;;
56141;SDS011;42018;48.588;10.836;2023-05-20T12:10:07;5.20;;;2.25;;
56141;SDS011;42018;48.588;10.836;2023-05-20T12:12:57;4.85;;;2.45;;
56141;SDS011;42018;48.588;10.836;2023-05-20T12:16:10;4.18;;;2.33;;
56141;SDS011;42018;48.588;10.836;2023-05-20T12:18:56;5.25;;;2.60;;
56141;SDS011;42018;48.588;10.836;2023-05-20T12:21:41;4.43;;;2.40;;
56141;SDS011;42018;48.588;10.836;2023-05-20T12:24:37;4.10;;;2.20;;
56141;SDS011;42018;48.588;10.836;2023-05-20T12:27:22;4.03;;;2.15;;
56141;SDS011;42018;48.588;10.836;2023-05-20T12:30:08;6.30;;;2.08;;
56141;SDS011;42018;48.588;10.836;2023-05-20T12:33:00;3.88;;;2.00;;
56141;SDS011;42018;48.588;10.836;2023-05-20T12:35:46;4.38;;;2.17;;
56141;SDS011;42018;48.588;10.836;2023-05-20T12:38:39;5.50;;;2.50;;
56141;SDS011;42018;48.588;10.836;2023-05-20T12:41:27;3.67;;;2.08;;
56141;SDS011;42018;48.588;10.836;2023-05-20T12:44:13;4.10;;;2.30;;
56141;SDS011;42018;48.588;10.836;2023-05-20T12:46:58;5.70;;;2.00;;
56141;SDS011;42018;48.588;10.836;2023-05-20T12:49:43;4.90;;;2.05;;
56141;SDS011;42018;48.588;10.836;2023-05-20T12:52:40;4.57;;;2.10;;
56141;SDS011;42018;48.588;10.836;2023-05-20T12:55:36;3.90;;;2.33;;
56141;SDS011;42018;48.588;10.836;2023-05-20T12:58:30;3.80;;;2.17;;
56141;SDS011;42018;48.588;10.836;2023-05-20T13:01:18;4.53;;;2.40;;
56141;SDS011;42018;48.588;10.836;2023-05-20T13:04:06;3.97;;;1.90;;
56141;SDS011;42018;48.588;10.836;2023-05-20T13:06:51;4.00;;;2.08;;
56141;SDS011;42018;48.588;10.836;2023-05-20T13:09:39;4.60;;;2.10;;
56141;SDS011;42018;48.588;10.836;2023-05-20T13:12:29;5.88;;;2.42;;
56141;SDS011;42018;48.588;10.836;2023-05-20T13:15:17;4.90;;;2.42;;
56141;SDS011;42018;48.588;10.836;2023-05-20T13:18:02;4.32;;;1.90;;
56141;SDS011;42018;48.588;10.836;2023-05-20T13:24:45;4.22;;;2.20;;
56141;SDS011;42018;48.588;10.836;2023-05-20T13:27:33;5.45;;;2.17;;
56141;SDS011;42018;48.588;10.836;2023-05-20T13:41:10;5.15;;;2.40;;
56141;SDS011;42018;48.588;10.836;2023-05-20T13:43:55;5.85;;;2.80;;
56141;SDS011;42018;48.588;10.836;2023-05-20T13:46:42;6.13;;;2.53;;
56141;SDS011;42018;48.588;10.836;2023-05-20T13:49:30;4.25;;;2.38;;
56141;SDS011;42018;48.588;10.836;2023-05-20T13:52:22;5.18;;;2.30;;
56141;SDS011;42018;48.588;10.836;2023-05-20T13:55:19;3.60;;;2.00;;
56141;SDS011;42018;48.588;10.836;2023-05-20T13:58:04;3.80;;;1.98;;
56141;SDS011;42018;48.588;10.836;2023-05-20T14:15:35;3.67;;;2.30;;
56141;SDS011;42018;48.588;10.836;2023-05-20T14:25:38;6.57;;;2.55;;
56141;SDS011;42018;48.588;10.836;2023-05-20T14:28:43;4.20;;;2.63;;
56141;SDS011;42018;48.588;10.836;2023-05-20T14:31:28;4.50;;;2.90;;
56141;SDS011;42018;48.588;10.836;2023-05-20T14:38:01;5.72;;;2.85;;
56141;SDS011;42018;48.588;10.836;2023-05-20T14:40:46;5.55;;;2.80;;
56141;SDS011;42018;48.588;10.836;2023-05-20T14:43:32;6.07;;;3.13;;
56141;SDS011;42018;48.588;10.836;2023-05-20T14:46:17;5.50;;;2.65;;
56141;SDS011;42018;48.588;10.836;2023-05-20T14:49:02;4.40;;;2.60;;
56141;SDS011;42018;48.588;10.836;2023-05-20T14:51:48;5.32;;;3.10;;
56141;SDS011;42018;48.588;10.836;2023-05-20T14:54:33;4.82;;;2.90;;
56141;SDS011;42018;48.588;10.836;2023-05-20T14:57:19;5.05;;;2.80;;
56141;SDS011;42018;48.588;10.836;2023-05-20T15:00:05;6.88;;;2.90;;
56141;SDS011;42018;48.588;10.836;2023-05-20T15:02:51;6.53;;;2.80;;
56141;SDS011;42018;48.588;10.836;2023-05-20T15:05:36;5.03;;;2.85;;
56141;SDS011;42018;48.588;10.836;2023-05-20T15:08:25;4.70;;;2.90;;
56141;SDS011;42018;48.588;10.836;2023-05-20T15:11:10;5.85;;;3.00;;
56141;SDS011;42018;48.588;10.836;2023-05-20T15:13:58;4.57;;;3.03;;
56141;SDS011;42018;48.588;10.836;2023-05-20T15:16:53;4.75;;;2.90;;
56141;SDS011;42018;48.588;10.836;2023-05-20T15:19:38;5.78;;;2.80;;
56141;SDS011;42018;48.588;10.836;2023-05-20T15:22:26;4.45;;;2.78;;
56141;SDS011;42018;48.588;10.836;2023-05-20T15:25:12;5.18;;;2.90;;
56141;SDS011;42018;48.588;10.836;2023-05-20T15:27:57;5.13;;;2.58;;
56141;SDS011;42018;48.588;10.836;2023-05-20T15:30:43;5.75;;;3.03;;
56141;SDS011;42018;48.588;10.836;2023-05-20T15:33:28;5.70;;;2.90;;
56141;SDS011;42018;48.588;10.836;2023-05-20T15:36:13;4.53;;;3.00;;
56141;SDS011;42018;48.588;10.836;2023-05-20T15:38:59;4.70;;;3.13;;
56141;SDS011;42018;48.588;10.836;2023-05-20T15:41:44;4.70;;;3.15;;
56141;SDS011;42018;48.588;10.836;2023-05-20T15:44:31;6.50;;;2.95;;
56141;SDS011;42018;48.588;10.836;2023-05-20T15:47:17;7.13;;;2.70;;
56141;SDS011;42018;48.588;10.836;2023-05-20T15:50:03;6.07;;;3.22;;
56141;SDS011;42018;48.588;10.836;2023-05-20T15:52:52;5.55;;;2.70;;
56141;SDS011;42018;48.588;10.836;2023-05-20T15:55:38;6.30;;;2.83;;
56141;SDS011;42018;48.588;10.836;2023-05-20T15:58:23;5.00;;;2.85;;
56141;SDS011;42018;48.588;10.836;2023-05-20T16:01:09;4.28;;;2.92;;
56141;SDS011;42018;48.588;10.836;2023-05-20T16:03:57;5.07;;;3.00;;
56141;SDS011;42018;48.588;10.836;2023-05-20T16:06:42;5.35;;;3.28;;
56141;SDS011;42018;48.588;10.836;2023-05-20T16:09:31;4.60;;;2.80;;
56141;SDS011;42018;48.588;10.836;2023-05-20T16:12:16;5.75;;;2.92;;
56141;SDS011;42018;48.588;10.836;2023-05-20T16:15:04;4.68;;;2.80;;
56141;SDS011;42018;48.588;10.836;2023-05-20T16:17:55;4.80;;;2.97;;
56141;SDS011;42018;48.588;10.836;2023-05-20T16:20:41;6.78;;;3.60;;
56141;SDS011;42018;48.588;10.836;2023-05-20T16:23:29;5.40;;;3.25;;
56141;SDS011;42018;48.588;10.836;2023-05-20T16:26:18;7.35;;;3.65;;
56141;SDS011;42018;48.588;10.836;2023-05-20T16:29:03;5.40;;;3.35;;
56141;SDS011;42018;48.588;10.836;2023-05-20T16:31:49;5.75;;;3.60;;
56141;SDS011;42018;48.588;10.836;2023-05-20T16:34:36;5.43;;;3.45;;
56141;SDS011;42018;48.588;10.836;2023-05-20T16:37:21;5.40;;;3.58;;
56141;SDS011;42018;48.588;10.836;2023-05-20T16:40:07;4.97;;;3.83;;
56141;SDS011;42018;48.588;10.836;2023-05-20T16:42:53;5.28;;;3.60;;
56141;SDS011;42018;48.588;10.836;2023-05-20T16:45:38;5.38;;;4.00;;
56141;SDS011;42018;48.588;10.836;2023-05-20T16:48:24;6.95;;;3.67;;
56141;SDS011;42018;48.588;10.836;2023-05-20T16:51:10;8.00;;;4.35;;
56141;SDS011;42018;48.588;10.836;2023-05-20T16:53:56;5.72;;;3.88;;
56141;SDS011;42018;48.588;10.836;2023-05-20T16:56:42;5.82;;;3.85;;
56141;SDS011;42018;48.588;10.836;2023-05-20T16:59:30;5.28;;;4.07;;
56141;SDS011;42018;48.588;10.836;2023-05-20T17:02:18;6.80;;;4.30;;
56141;SDS011;42018;48.588;10.836;2023-05-20T17:05:04;5.60;;;4.00;;
56141;SDS011;42018;48.588;10.836;2023-05-20T17:07:50;6.90;;;4.10;;
56141;SDS011;42018;48.588;10.836;2023-05-20T17:10:36;7.20;;;3.88;;
56141;SDS011;42018;48.588;10.836;2023-05-20T17:13:22;5.70;;;4.18;;
56141;SDS011;42018;48.588;10.836;2023-05-20T17:16:07;6.07;;;4.07;;
56141;SDS011;42018;48.588;10.836;2023-05-20T17:18:53;5.47;;;3.70;;
56141;SDS011;42018;48.588;10.836;2023-05-20T17:21:38;5.72;;;3.97;;
56141;SDS011;42018;48.588;10.836;2023-05-20T17:24:24;7.15;;;4.45;;
56141;SDS011;42018;48.588;10.836;2023-05-20T17:27:09;5.50;;;4.05;;
56141;SDS011;42018;48.588;10.836;2023-05-20T17:29:55;10.00;;;4.28;;
56141;SDS011;42018;48.588;10.836;2023-05-20T17:32:42;6.25;;;3.97;;
56141;SDS011;42018;48.588;10.836;2023-05-20T17:35:27;6.47;;;4.07;;
56141;SDS011;42018;48.588;10.836;2023-05-20T17:38:13;5.32;;;4.05;;
56141;SDS011;42018;48.588;10.836;2023-05-20T17:40:58;5.60;;;4.05;;
56141;SDS011;42018;48.588;10.836;2023-05-20T17:43:44;5.75;;;3.80;;
56141;SDS011;42018;48.588;10.836;2023-05-20T17:46:31;6.03;;;4.20;;
56141;SDS011;42018;48.588;10.836;2023-05-20T17:49:17;6.72;;;4.07;;
56141;SDS011;42018;48.588;10.836;2023-05-20T17:52:03;5.60;;;4.00;;
56141;SDS011;42018;48.588;10.836;2023-05-20T17:54:48;8.20;;;4.25;;
56141;SDS011;42018;48.588;10.836;2023-05-20T17:57:34;5.95;;;4.30;;
56141;SDS011;42018;48.588;10.836;2023-05-20T18:00:19;6.88;;;4.35;;
56141;SDS011;42018;48.588;10.836;2023-05-20T18:03:05;5.55;;;4.15;;
56141;SDS011;42018;48.588;10.836;2023-05-20T18:05:51;6.28;;;4.03;;
56141;SDS011;42018;48.588;10.836;2023-05-20T18:08:36;7.18;;;4.28;;
56141;SDS011;42018;48.588;10.836;2023-05-20T18:11:21;6.45;;;4.55;;
56141;SDS011;42018;48.588;10.836;2023-05-20T18:14:09;6.40;;;4.00;;
56141;SDS011;42018;48.588;10.836;2023-05-20T18:16:55;6.35;;;4.63;;
56141;SDS011;42018;48.588;10.836;2023-05-20T18:19:41;5.85;;;4.32;;
56141;SDS011;42018;48.588;10.836;2023-05-20T18:22:29;6.47;;;4.40;;
56141;SDS011;42018;48.588;10.836;2023-05-20T18:25:14;5.50;;;4.25;;
56141;SDS011;42018;48.588;10.836;2023-05-20T18:28:00;5.65;;;4.30;;
56141;SDS011;42018;48.588;10.836;2023-05-20T18:30:47;6.10;;;4.00;;
56141;SDS011;42018;48.588;10.836;2023-05-20T18:33:32;6.78;;;4.50;;
56141;SDS011;42018;48.588;10.836;2023-05-20T18:36:18;5.88;;;4.20;;